Time;durP1;ratioP1;P1;durP2;ratioP2;P2;SDS_P1;SDS_P2;PMS_P1;PMS_P2;Temp;Humidity;BMP_temperature;BMP_pressure;BME280_temperature;BME280_humidity;BME280_pressure;Samples;Min_cycle;Max_cycle;Signal;HPM_P1;HPM_P2
2021/10/10 00:01:26;;;;;;;22.33;19.08;;;20.90;53.00;;;;;;4737528;59;21528;-22
2021/10/10 00:06:27;;;;;;;20.98;18.67;;;20.90;53.00;;;;;;4756405;55;21559;-23
2021/10/10 00:11:27;;;;;;;21.60;18.83;;;20.90;53.00;;;;;;4747751;55;21006;-25
2021/10/10 00:16:28;;;;;;;21.92;19.08;;;20.90;53.00;;;;;;4776309;55;21465;-25
2021/10/10 00:21:29;;;;;;;22.35;18.80;;;20.90;53.00;;;;;;4800142;55;21077;-25
2021/10/10 00:26:30;;;;;;;21.35;18.12;;;20.90;53.00;;;;;;4737638;59;21563;-25
2021/10/10 00:31:34;;;;;;;20.42;17.87;;;20.90;53.60;;;;;;4765345;55;21074;-25
2021/10/10 00:36:35;;;;;;;20.65;17.83;;;20.90;53.00;;;;;;4738427;59;21094;-23
2021/10/10 00:41:37;;;;;;;21.08;18.52;;;20.90;52.90;;;;;;4750910;55;21002;-22
2021/10/10 00:46:39;;;;;;;21.92;18.40;;;20.90;52.90;;;;;;4750142;55;21009;-24
2021/10/10 00:51:43;;;;;;;20.88;17.45;;;20.90;52.90;;;;;;4749636;55;21086;-24
2021/10/10 00:56:46;;;;;;;20.27;17.33;;;20.90;52.90;;;;;;4741571;55;21018;-21
2021/10/10 01:01:49;;;;;;;21.45;17.87;;;20.90;52.90;;;;;;4763634;55;21006;-21
2021/10/10 01:06:50;;;;;;;23.12;18.10;;;20.90;52.90;;;;;;4738696;55;20994;-19
2021/10/10 01:11:51;;;;;;;20.37;17.05;;;20.90;52.90;;;;;;4738492;55;21495;-23
2021/10/10 01:16:52;;;;;;;19.85;17.62;;;20.90;52.90;;;;;;4737724;55;21014;-21
2021/10/10 01:21:56;;;;;;;19.48;17.00;;;20.90;52.90;;;;;;4737928;55;21033;-24
2021/10/10 01:26:56;;;;;;;19.87;16.65;;;20.90;52.90;;;;;;4736814;59;20991;-23
2021/10/10 01:31:57;;;;;;;20.88;17.33;;;20.90;52.90;;;;;;4744054;55;21468;-27
2021/10/10 01:36:58;;;;;;;18.10;16.12;;;20.90;52.80;;;;;;4737583;55;21054;-26
2021/10/10 01:42:00;;;;;;;20.30;16.15;;;20.90;52.80;;;;;;4746701;55;20982;-25
2021/10/10 01:47:01;;;;;;;19.73;16.73;;;20.90;52.90;;;;;;4742623;55;21468;-28
2021/10/10 01:52:02;;;;;;;18.83;15.77;;;20.90;52.80;;;;;;4736862;59;21034;-25
2021/10/10 01:57:03;;;;;;;19.33;16.48;;;20.90;52.80;;;;;;4763004;55;21120;-26
2021/10/10 02:02:05;;;;;;;20.23;16.17;;;20.90;52.80;;;;;;4752655;55;21606;-24
2021/10/10 02:07:06;;;;;;;19.23;16.35;;;20.90;52.80;;;;;;4738066;59;21081;-24
2021/10/10 02:12:07;;;;;;;18.67;15.75;;;20.90;52.80;;;;;;4757843;55;21062;-25
2021/10/10 02:17:08;;;;;;;18.27;15.65;;;20.90;52.80;;;;;;4736839;59;20986;-24
2021/10/10 02:22:09;;;;;;;18.90;16.05;;;20.90;52.80;;;;;;4760046;55;21530;-24
2021/10/10 02:27:10;;;;;;;18.52;15.70;;;20.90;52.80;;;;;;4737416;59;21014;-24
2021/10/10 02:32:19;;;;;;;18.50;15.40;;;20.90;52.80;;;;;;4773283;55;21468;-20
2021/10/10 02:37:21;;;;;;;18.48;15.93;;;20.90;52.80;;;;;;4737095;59;21572;-24
2021/10/10 02:42:22;;;;;;;17.33;15.20;;;20.90;52.80;;;;;;4742215;55;21046;-19
2021/10/10 02:47:22;;;;;;;19.02;16.15;;;20.90;52.80;;;;;;4760103;55;21569;-21
2021/10/10 02:52:24;;;;;;;19.45;16.00;;;20.90;52.70;;;;;;4736900;55;21046;-21
2021/10/10 02:57:25;;;;;;;18.17;15.20;;;20.90;52.80;;;;;;4746936;55;21125;-24
2021/10/10 03:02:26;;;;;;;18.02;15.02;;;20.90;52.70;;;;;;4747909;55;21464;-24
2021/10/10 03:07:26;;;;;;;17.60;15.07;;;20.90;52.70;;;;;;4749015;55;20994;-24
2021/10/10 03:12:27;;;;;;;17.85;14.90;;;20.90;52.70;;;;;;4743671;55;21620;-26
2021/10/10 03:17:28;;;;;;;17.92;15.48;;;20.90;52.70;;;;;;4743464;55;21105;-22
2021/10/10 03:22:29;;;;;;;18.48;15.63;;;20.90;52.70;;;;;;4748307;55;21536;-20
2021/10/10 03:27:30;;;;;;;17.10;14.55;;;20.90;52.70;;;;;;4743279;55;21006;-25
2021/10/10 03:32:31;;;;;;;16.98;14.20;;;20.90;52.70;;;;;;4750474;55;21615;-23
2021/10/10 03:37:35;;;;;;;17.05;14.30;;;20.90;52.70;;;;;;4774664;55;21022;-22
2021/10/10 03:42:37;;;;;;;17.52;14.45;;;20.90;52.80;;;;;;4736634;59;21480;-19
2021/10/10 03:47:38;;;;;;;17.08;14.65;;;20.90;52.70;;;;;;4736570;59;21074;-22
2021/10/10 03:52:41;;;;;;;18.00;14.02;;;20.90;52.70;;;;;;4768039;55;21488;-25
2021/10/10 03:57:42;;;;;;;15.52;13.15;;;20.90;52.70;;;;;;4791350;55;21598;-24
2021/10/10 04:02:43;;;;;;;17.05;13.95;;;20.90;52.70;;;;;;4771908;55;21086;-20
2021/10/10 04:07:44;;;;;;;16.55;14.13;;;20.90;52.70;;;;;;4749406;55;21081;-22
2021/10/10 04:12:45;;;;;;;16.87;13.88;;;20.90;52.70;;;;;;4737901;55;21675;-21
2021/10/10 04:17:46;;;;;;;16.05;12.90;;;20.90;52.60;;;;;;4784363;55;21565;-22
2021/10/10 04:22:48;;;;;;;17.10;14.18;;;20.90;52.60;;;;;;4740484;55;21999;-26
2021/10/10 04:27:49;;;;;;;16.62;13.57;;;20.90;52.60;;;;;;4778115;55;21472;-23
2021/10/10 04:32:50;;;;;;;15.15;12.85;;;20.90;52.60;;;;;;4760638;55;21523;-24
2021/10/10 04:37:51;;;;;;;17.10;13.62;;;20.90;52.60;;;;;;4740229;55;21030;-23
2021/10/10 04:42:52;;;;;;;15.15;12.70;;;20.90;52.70;;;;;;4740900;55;21542;-24
2021/10/10 04:47:53;;;;;;;15.35;13.00;;;20.90;53.20;;;;;;4750473;55;21089;-25
2021/10/10 04:52:54;;;;;;;15.05;12.88;;;20.90;52.60;;;;;;4740455;55;21534;-20
2021/10/10 04:57:55;;;;;;;13.82;11.68;;;20.90;52.60;;;;;;4737380;59;21089;-24
2021/10/10 05:02:55;;;;;;;16.00;13.27;;;20.90;52.60;;;;;;4743035;55;21078;-23
2021/10/10 05:07:56;;;;;;;14.38;12.45;;;20.90;52.60;;;;;;4744891;55;22047;-21
2021/10/10 05:12:57;;;;;;;14.73;12.93;;;20.90;52.60;;;;;;4754633;55;21587;-25
2021/10/10 05:17:58;;;;;;;16.33;13.07;;;20.90;52.60;;;;;;4767752;55;21026;-23
2021/10/10 05:23:02;;;;;;;14.90;12.77;;;20.90;52.60;;;;;;4749628;55;21050;-24
2021/10/10 05:28:03;;;;;;;15.23;13.07;;;20.90;52.60;;;;;;4737608;59;21006;-25
2021/10/10 05:33:04;;;;;;;13.30;11.70;;;20.90;52.60;;;;;;4739804;55;20994;-25
2021/10/10 05:38:05;;;;;;;15.18;12.63;;;20.90;52.60;;;;;;4744366;55;21038;-20
2021/10/10 05:43:05;;;;;;;14.52;12.27;;;20.90;52.60;;;;;;4758241;55;21058;-25
2021/10/10 05:48:06;;;;;;;16.85;11.98;;;20.90;53.20;;;;;;4769531;55;21038;-20
2021/10/10 05:53:08;;;;;;;14.77;12.85;;;20.90;52.60;;;;;;4767448;55;20999;-24
2021/10/10 05:58:16;;;;;;;14.50;12.80;;;20.90;52.60;;;;;;4739819;55;21607;-25
2021/10/10 06:03:17;;;;;;;14.02;11.77;;;20.90;52.50;;;;;;4753016;55;21515;-23
2021/10/10 06:08:18;;;;;;;14.43;12.43;;;20.80;52.50;;;;;;4792628;55;21121;-24
2021/10/10 06:13:19;;;;;;;14.45;11.68;;;20.90;52.30;;;;;;4746887;55;21449;-25
2021/10/10 06:18:20;;;;;;;16.05;12.85;;;20.80;52.50;;;;;;4780086;55;21074;-26
2021/10/10 06:23:21;;;;;;;14.73;12.37;;;20.90;52.50;;;;;;4755948;55;21071;-24
2021/10/10 06:28:24;;;;;;;14.77;12.13;;;20.80;52.50;;;;;;4781005;55;21489;-19
2021/10/10 06:33:25;;;;;;;15.50;12.45;;;20.80;52.50;;;;;;4784400;55;21552;-21
2021/10/10 06:38:26;;;;;;;14.70;12.13;;;20.90;52.50;;;;;;4737458;55;21046;-24
2021/10/10 06:43:27;;;;;;;14.63;11.98;;;20.90;52.60;;;;;;4737285;59;21523;-23
2021/10/10 06:48:29;;;;;;;14.02;12.20;;;20.90;52.50;;;;;;4752824;55;21066;-25
2021/10/10 06:53:30;;;;;;;14.60;12.70;;;20.90;52.50;;;;;;4736941;59;21066;-26
2021/10/10 06:58:32;;;;;;;14.20;12.32;;;20.90;52.50;;;;;;4757149;55;21026;-25
2021/10/10 07:03:34;;;;;;;14.15;11.68;;;20.90;52.50;;;;;;4737327;59;21013;-24
2021/10/10 07:08:35;;;;;;;14.77;12.25;;;20.80;52.50;;;;;;4748959;55;21575;-24
2021/10/10 07:13:36;;;;;;;15.35;12.27;;;20.90;52.60;;;;;;4763187;55;21097;-25
2021/10/10 07:18:44;;;;;;;16.00;12.60;;;20.80;52.50;;;;;;4752847;55;21137;-20
2021/10/10 07:29:46;;;;;;;16.40;13.32;;;20.90;52.50;;;;;;4745927;55;21034;-21
2021/10/10 07:34:46;;;;;;;15.35;12.37;;;20.80;52.60;;;;;;4751155;55;21457;-26
2021/10/10 07:39:48;;;;;;;16.92;13.02;;;20.90;52.60;;;;;;4749207;55;21061;-24
2021/10/10 07:44:52;;;;;;;16.42;13.73;;;20.90;52.60;;;;;;4745807;55;21563;-22
2021/10/10 07:49:54;;;;;;;16.77;13.73;;;20.90;52.60;;;;;;4737585;59;21639;-24
2021/10/10 07:54:55;;;;;;;17.02;13.50;;;20.90;52.60;;;;;;4763639;55;21077;-17
2021/10/10 07:59:56;;;;;;;17.17;14.27;;;20.80;52.50;;;;;;4737145;59;21463;-25
2021/10/10 08:04:57;;;;;;;17.52;14.15;;;20.90;52.60;;;;;;4763256;55;21064;-23
2021/10/10 08:09:57;;;;;;;17.42;14.60;;;20.80;52.50;;;;;;4761629;55;21081;-25
2021/10/10 08:14:58;;;;;;;17.52;14.35;;;20.90;52.60;;;;;;4737875;59;21434;-25
2021/10/10 08:19:59;;;;;;;19.23;14.73;;;20.80;52.50;;;;;;4736650;59;21077;-26
2021/10/10 08:25:01;;;;;;;18.75;15.30;;;20.80;52.50;;;;;;4762130;55;21519;-23
2021/10/10 08:30:04;;;;;;;18.12;15.30;;;20.90;52.60;;;;;;4740945;55;21010;-24
2021/10/10 08:35:07;;;;;;;16.90;14.68;;;20.90;52.60;;;;;;4766517;55;21061;-23
2021/10/10 08:40:10;;;;;;;20.48;15.93;;;20.90;52.60;;;;;;4751664;55;21034;-25
2021/10/10 08:45:22;;;;;;;20.12;15.50;;;20.90;52.60;;;;;;4743107;55;22188;-24
2021/10/10 08:50:29;;;;;;;19.50;16.15;;;20.90;52.60;;;;;;4741354;55;21126;-25
2021/10/10 08:55:32;;;;;;;20.58;16.65;;;20.90;52.60;;;;;;4754501;55;21125;-24
2021/10/10 09:00:35;;;;;;;19.58;16.30;;;20.80;52.60;;;;;;4750406;55;21077;-25
2021/10/10 09:05:37;;;;;;;21.95;17.67;;;20.90;52.60;;;;;;4776038;55;21630;-26
2021/10/10 09:10:38;;;;;;;21.23;17.73;;;20.90;52.70;;;;;;4800421;55;21062;-26
2021/10/10 09:15:42;;;;;;;21.27;17.73;;;20.80;52.60;;;;;;4746913;55;21094;-26
2021/10/10 09:20:48;;;;;;;22.30;18.65;;;20.90;52.60;;;;;;4748539;55;21021;-26
2021/10/10 09:26:01;;;;;;;21.80;18.55;;;20.80;52.60;;;;;;4755664;55;20982;-23
2021/10/10 09:31:06;;;;;;;22.90;19.23;;;20.90;52.70;;;;;;4751744;55;21094;-26
2021/10/10 09:36:15;;;;;;;24.60;20.85;;;20.90;52.70;;;;;;4743867;55;21524;-23
2021/10/10 09:41:42;;;;;;;27.08;21.58;;;20.90;52.60;;;;;;4737457;55;21065;-23
2021/10/10 09:46:45;;;;;;;26.80;21.07;;;20.80;52.60;;;;;;4758061;55;21563;-22
2021/10/10 09:51:46;;;;;;;28.73;22.75;;;20.90;52.70;;;;;;4752593;55;23163;-26
2021/10/10 09:57:07;;;;;;;27.02;21.90;;;20.80;52.60;;;;;;4762570;55;21049;-25
2021/10/10 10:02:08;;;;;;;28.60;22.98;;;20.90;52.70;;;;;;4743559;55;21472;-25
2021/10/10 10:07:12;;;;;;;30.80;23.77;;;20.80;52.70;;;;;;4742648;55;21077;-26
2021/10/10 10:12:12;;;;;;;31.45;23.77;;;20.80;52.70;;;;;;4737376;59;21013;-26
2021/10/10 10:17:13;;;;;;;32.20;24.77;;;20.90;52.70;;;;;;4752100;55;21544;-23
2021/10/10 10:22:17;;;;;;;32.55;26.55;;;20.80;52.70;;;;;;4743386;55;21006;-27
2021/10/10 10:27:18;;;;;;;34.70;27.10;;;20.90;52.70;;;;;;4781993;55;21049;-25
2021/10/10 10:32:19;;;;;;;34.95;27.35;;;20.90;52.80;;;;;;4754294;55;21552;-22
2021/10/10 10:37:20;;;;;;;34.17;28.60;;;20.80;52.80;;;;;;4738809;55;21089;-21
2021/10/10 10:42:40;;;;;;;37.47;29.70;;;20.80;52.70;;;;;;4756931;55;21524;-24
2021/10/10 10:47:44;;;;;;;37.40;29.25;;;20.80;52.70;;;;;;4763891;55;20994;-21
2021/10/10 10:52:56;;;;;;;38.72;30.52;;;20.80;52.80;;;;;;4749020;55;21006;-25
2021/10/10 10:58:35;;;;;;;41.80;32.45;;;20.80;52.70;;;;;;4736793;59;21069;-24
2021/10/10 11:03:36;;;;;;;40.70;31.45;;;20.90;52.80;;;;;;4737478;59;21026;-25
2021/10/10 11:08:42;;;;;;;42.45;33.50;;;20.80;52.70;;;;;;4752880;55;22161;-28
2021/10/10 11:13:46;;;;;;;44.80;34.63;;;20.80;52.80;;;;;;4737128;55;21105;-26
2021/10/10 11:18:55;;;;;;;42.72;34.13;;;20.80;52.80;;;;;;4743812;55;21512;-26
2021/10/10 11:23:58;;;;;;;44.25;35.20;;;20.90;52.90;;;;;;4756952;55;21054;-26
2021/10/10 11:29:01;;;;;;;45.00;35.53;;;20.80;52.80;;;;;;4754188;55;21152;-27
2021/10/10 11:34:06;;;;;;;48.58;37.03;;;20.80;52.80;;;;;;4766261;55;21038;-26
2021/10/10 11:39:21;;;;;;;44.95;35.92;;;20.90;52.90;;;;;;4762085;55;21010;-25
2021/10/10 11:44:34;;;;;;;50.00;38.47;;;20.80;52.90;;;;;;4778792;55;21094;-27
2021/10/10 11:49:42;;;;;;;48.63;38.17;;;20.90;52.90;;;;;;4751950;55;21547;-24
2021/10/10 11:54:44;;;;;;;;;;;20.80;52.90;;;;;;4764594;55;21547;-25
2021/10/10 11:59:56;;;;;;;48.83;39.72;;;20.80;52.90;;;;;;4749881;55;20353;-26
2021/10/10 12:05:03;;;;;;;49.55;39.80;;;20.90;52.90;;;;;;4736956;59;21018;-25
2021/10/10 12:10:06;;;;;;;49.78;39.97;;;20.90;53.00;;;;;;4761623;55;21025;-21
2021/10/10 12:15:07;;;;;;;52.58;40.85;;;20.80;52.90;;;;;;4737637;59;21579;-25
2021/10/10 12:21:18;;;;;;;53.97;42.40;;;20.80;53.00;;;;;;4736691;55;21589;-24
2021/10/10 12:26:19;;;;;;;52.95;41.72;;;20.90;53.00;;;;;;4771655;55;21101;-24
2021/10/10 12:31:22;;;;;;;58.42;43.15;;;20.80;53.00;;;;;;4760539;55;20994;-25
2021/10/10 12:36:23;;;;;;;54.28;43.30;;;20.80;53.00;;;;;;4753406;55;21504;-25
2021/10/10 12:41:27;;;;;;;53.47;41.50;;;20.90;53.00;;;;;;4737717;59;21046;-24
2021/10/10 12:46:55;;;;;;;52.85;41.92;;;20.90;53.00;;;;;;4760968;55;21054;-21
2021/10/10 12:51:57;;;;;;;54.08;42.92;;;20.80;53.00;;;;;;4781165;55;21558;-28
2021/10/10 12:57:21;;;;;;;54.13;43.63;;;20.80;53.00;;;;;;4737069;59;21077;-24
2021/10/10 13:02:22;;;;;;;55.63;42.70;;;20.80;53.00;;;;;;4751214;55;21111;-23
2021/10/10 13:07:22;;;;;;;54.22;41.97;;;20.80;52.60;;;;;;4743884;55;21073;-24
2021/10/10 13:12:23;;;;;;;56.85;43.95;;;20.90;53.10;;;;;;4774666;55;21062;-24
2021/10/10 13:17:24;;;;;;;52.85;42.05;;;20.80;53.10;;;;;;4778413;55;21062;-26
2021/10/10 13:22:25;;;;;;;56.58;42.78;;;20.90;53.20;;;;;;4744663;55;21014;-23
2021/10/10 13:27:26;;;;;;;54.42;42.58;;;20.80;53.10;;;;;;4742409;55;21105;-20
2021/10/10 13:32:27;;;;;;;55.08;42.33;;;20.80;53.10;;;;;;4739377;55;21066;-26
2021/10/10 13:37:28;;;;;;;50.63;41.03;;;20.80;53.20;;;;;;4754954;55;21037;-26
2021/10/10 13:42:29;;;;;;;54.25;43.92;;;20.80;52.70;;;;;;4738824;55;21781;-25
2021/10/10 13:47:29;;;;;;;53.55;42.88;;;20.80;53.10;;;;;;4745304;55;21530;-22
2021/10/10 13:52:30;;;;;;;54.40;41.78;;;20.80;53.20;;;;;;4745230;55;21570;-23
2021/10/10 13:57:31;;;;;;;56.35;44.17;;;20.80;53.10;;;;;;4736633;59;21474;-25
2021/10/10 14:02:33;;;;;;;53.42;42.25;;;20.90;53.20;;;;;;4739722;55;22414;-25
2021/10/10 14:07:36;;;;;;;51.95;43.40;;;20.80;53.20;;;;;;4745985;55;21085;-23
2021/10/10 14:12:40;;;;;;;52.22;43.50;;;20.80;53.20;;;;;;4761129;55;21551;-23
2021/10/10 14:17:41;;;;;;;55.90;44.63;;;20.80;53.20;;;;;;4748207;55;21192;-23
2021/10/10 14:22:42;;;;;;;54.97;42.30;;;20.80;53.20;;;;;;4781552;55;21482;-24
2021/10/10 14:27:43;;;;;;;52.80;42.40;;;20.80;53.20;;;;;;4737570;55;21076;-25
2021/10/10 14:32:46;;;;;;;53.75;43.78;;;20.80;53.20;;;;;;4741502;55;21046;-26
2021/10/10 14:37:47;;;;;;;55.00;43.15;;;20.80;53.20;;;;;;4741428;55;22156;-23
2021/10/10 14:48:09;;;;;;;50.00;40.63;;;20.80;53.30;;;;;;4744522;55;21146;-26
2021/10/10 14:53:12;;;;;;;51.60;41.28;;;20.80;53.30;;;;;;4748495;55;21495;-25
2021/10/10 14:58:22;;;;;;;53.15;41.88;;;20.80;53.30;;;;;;4739501;55;21026;-23
2021/10/10 15:03:23;;;;;;;50.15;41.42;;;20.80;53.30;;;;;;4757969;55;21650;-21
2021/10/10 15:08:26;;;;;;;51.47;41.47;;;20.80;53.30;;;;;;4758260;55;21059;-21
2021/10/10 15:13:27;;;;;;;53.65;42.17;;;20.80;53.40;;;;;;4743203;55;21500;-30
2021/10/10 15:18:28;;;;;;;51.78;41.13;;;20.80;53.30;;;;;;4776503;55;21406;-24
2021/10/10 15:23:31;;;;;;;52.38;41.63;;;20.90;53.40;;;;;;4779861;55;21038;-25
2021/10/10 15:28:31;;;;;;;52.65;42.10;;;20.80;53.40;;;;;;4736526;59;21475;-26
2021/10/10 15:33:32;;;;;;;50.10;41.25;;;20.90;53.40;;;;;;4736051;55;21098;-23
2021/10/10 15:38:33;;;;;;;53.67;41.75;;;20.90;53.40;;;;;;4751443;55;21029;-23
2021/10/10 15:43:36;;;;;;;51.75;40.72;;;20.90;53.40;;;;;;4747029;55;21589;-18
2021/10/10 15:48:37;;;;;;;49.75;42.15;;;20.80;53.40;;;;;;4755268;55;21598;-21
2021/10/10 15:53:38;;;;;;;51.85;41.25;;;20.80;53.40;;;;;;4751333;55;21066;-22
2021/10/10 15:58:40;;;;;;;50.72;40.55;;;20.80;53.40;;;;;;4737644;55;21618;-25
2021/10/10 16:03:41;;;;;;;51.05;41.45;;;20.80;53.40;;;;;;4750685;55;21042;-25
2021/10/10 16:08:41;;;;;;;48.85;38.70;;;20.80;53.40;;;;;;4742130;55;21546;-25
2021/10/10 16:13:45;;;;;;;50.63;39.42;;;20.80;53.40;;;;;;4755334;55;21483;-23
2021/10/10 16:18:46;;;;;;;49.22;39.20;;;20.80;53.50;;;;;;4737032;55;21113;-24
2021/10/10 16:23:47;;;;;;;50.08;39.83;;;20.80;53.40;;;;;;4738404;59;21448;-26
2021/10/10 16:28:47;;;;;;;48.72;39.10;;;20.80;53.40;;;;;;4743545;55;20994;-23
2021/10/10 16:33:50;;;;;;;48.53;39.47;;;20.80;53.40;;;;;;4740264;55;21010;-20
2021/10/10 16:38:54;;;;;;;47.97;40.20;;;20.80;53.40;;;;;;4737822;59;21572;-22
2021/10/10 16:43:55;;;;;;;49.92;39.88;;;20.80;53.40;;;;;;4752919;55;21452;-24
2021/10/10 16:48:57;;;;;;;50.17;40.40;;;20.80;53.40;;;;;;4740582;55;21037;-26
2021/10/10 16:53:57;;;;;;;50.80;39.00;;;20.80;53.50;;;;;;4742148;55;20986;-26
2021/10/10 16:58:58;;;;;;;50.72;39.67;;;20.80;53.50;;;;;;4741663;55;21544;-24
2021/10/10 17:03:59;;;;;;;47.53;38.85;;;20.80;53.50;;;;;;4750248;55;21049;-24
2021/10/10 17:09:00;;;;;;;45.78;38.25;;;20.90;53.60;;;;;;4742284;55;21559;-22
2021/10/10 17:14:12;;;;;;;48.03;39.90;;;20.80;53.50;;;;;;4843842;55;20991;-24
2021/10/10 17:19:15;;;;;;;47.45;39.03;;;20.80;53.50;;;;;;4737196;59;21622;-20
2021/10/10 17:24:18;;;;;;;46.08;38.33;;;20.80;53.50;;;;;;4767421;55;20998;-24
2021/10/10 17:29:20;;;;;;;46.40;38.20;;;20.80;53.60;;;;;;4743557;55;21169;-23
2021/10/10 17:34:25;;;;;;;48.60;40.22;;;20.80;53.60;;;;;;4750643;55;21065;-25
2021/10/10 17:39:27;;;;;;;50.40;39.90;;;20.90;53.60;;;;;;4798258;55;21029;-25
2021/10/10 17:44:30;;;;;;;48.78;39.38;;;20.80;53.60;;;;;;4752261;55;21006;-27
2021/10/10 17:49:31;;;;;;;48.15;39.80;;;20.90;53.70;;;;;;4739066;55;21110;-27
2021/10/10 17:54:32;;;;;;;47.83;39.05;;;20.80;53.60;;;;;;4737303;59;21057;-22
2021/10/10 17:59:59;;;;;;;48.03;39.70;;;20.90;53.70;;;;;;4745872;55;21376;-23
2021/10/10 18:11:01;;;;;;;48.40;39.80;;;20.80;53.60;;;;;;4736168;55;20137;-22
2021/10/10 18:16:02;;;;;;;48.20;40.47;;;20.80;53.60;;;;;;4754017;55;21046;-25
2021/10/10 18:21:03;;;;;;;47.33;39.53;;;20.80;53.60;;;;;;4737070;55;22229;-21
2021/10/10 18:26:04;;;;;;;47.55;39.88;;;20.80;53.60;;;;;;4764347;55;21077;-23
2021/10/10 18:31:05;;;;;;;48.08;40.30;;;20.80;53.60;;;;;;4760420;55;21105;-26
2021/10/10 18:36:06;;;;;;;46.90;39.28;;;20.80;53.60;;;;;;4748547;55;21074;-24
2021/10/10 18:41:07;;;;;;;47.10;38.58;;;20.80;53.60;;;;;;4764039;55;21065;-25
2021/10/10 18:46:09;;;;;;;47.83;39.80;;;20.80;53.60;;;;;;4749360;55;21504;-20
2021/10/10 18:51:12;;;;;;;45.00;38.17;;;20.80;53.60;;;;;;4745201;55;21057;-25
2021/10/10 18:56:12;;;;;;;45.58;37.78;;;20.80;53.60;;;;;;4737173;55;21558;-25
2021/10/10 19:01:13;;;;;;;47.17;37.88;;;20.80;53.60;;;;;;4752065;55;21018;-27
2021/10/10 19:06:14;;;;;;;44.03;37.47;;;20.80;53.60;;;;;;4788355;55;21478;-23
2021/10/10 19:11:16;;;;;;;45.35;37.28;;;20.80;53.60;;;;;;4765598;55;20993;-26
2021/10/10 19:16:17;;;;;;;42.17;36.67;;;20.80;53.60;;;;;;4739155;55;21089;-27
2021/10/10 19:21:18;;;;;;;42.20;36.55;;;20.80;53.70;;;;;;4747039;55;21480;-26
2021/10/10 19:26:19;;;;;;;44.88;36.75;;;20.80;53.60;;;;;;4739309;55;21010;-25
2021/10/10 19:31:20;;;;;;;44.78;37.30;;;20.90;53.70;;;;;;4769632;55;21016;-26
2021/10/10 19:36:21;;;;;;;44.72;37.10;;;20.80;53.60;;;;;;4762500;55;20994;-25
2021/10/10 19:41:22;;;;;;;43.47;36.78;;;20.80;53.60;;;;;;4748868;55;21060;-24
2021/10/10 19:46:26;;;;;;;42.40;35.65;;;20.80;53.60;;;;;;4741514;55;20998;-24
2021/10/10 19:51:31;;;;;;;40.63;35.22;;;20.80;53.60;;;;;;4737723;59;21127;-26
2021/10/10 19:56:32;;;;;;;41.72;35.35;;;20.80;53.60;;;;;;4755251;55;21520;-25
2021/10/10 20:01:33;;;;;;;41.17;35.15;;;20.80;53.60;;;;;;4761131;55;21078;-20
2021/10/10 20:06:34;;;;;;;41.08;35.15;;;20.80;53.60;;;;;;4760186;55;21013;-24
2021/10/10 20:11:35;;;;;;;41.53;35.08;;;20.80;53.60;;;;;;4763805;55;21026;-22
2021/10/10 20:16:36;;;;;;;40.35;35.03;;;20.80;53.60;;;;;;4760799;55;21078;-26
2021/10/10 20:21:37;;;;;;;40.08;33.85;;;20.80;53.60;;;;;;4740453;55;21141;-25
2021/10/10 20:26:38;;;;;;;38.40;33.15;;;20.80;53.60;;;;;;4787882;55;21077;-24
2021/10/10 20:31:39;;;;;;;40.30;34.38;;;20.80;53.60;;;;;;4774382;55;21018;-23
2021/10/10 20:36:40;;;;;;;38.15;33.53;;;20.80;53.60;;;;;;4746764;55;21073;-22
2021/10/10 20:41:41;;;;;;;39.80;33.70;;;20.80;53.60;;;;;;4774552;55;21053;-26
2021/10/10 20:46:42;;;;;;;38.00;32.40;;;20.80;53.60;;;;;;4764240;55;21436;-25
2021/10/10 20:51:43;;;;;;;38.08;32.63;;;20.80;53.60;;;;;;4765162;55;21089;-22
2021/10/10 20:56:43;;;;;;;38.72;32.05;;;20.80;53.50;;;;;;4737858;59;21081;-21
2021/10/10 21:01:44;;;;;;;37.22;32.40;;;20.80;53.50;;;;;;4765790;55;21022;-25
2021/10/10 21:06:48;;;;;;;35.95;31.45;;;20.80;53.50;;;;;;4746900;55;22017;-24
2021/10/10 21:11:51;;;;;;;37.70;31.25;;;20.80;53.50;;;;;;4753495;55;21563;-25
2021/10/10 21:16:52;;;;;;;36.45;30.77;;;20.80;53.50;;;;;;4736871;55;21754;-21
2021/10/10 21:21:54;;;;;;;36.13;30.98;;;20.80;53.50;;;;;;4757357;55;21041;-25
2021/10/10 21:26:56;;;;;;;37.28;29.95;;;20.80;53.60;;;;;;4755475;55;21551;-22
2021/10/10 21:32:10;;;;;;;33.85;29.33;;;20.80;53.50;;;;;;4768130;55;21476;-24
2021/10/10 21:37:11;;;;;;;34.67;29.30;;;20.80;53.50;;;;;;4790486;55;21512;-22
2021/10/10 21:42:12;;;;;;;33.17;28.52;;;20.80;53.50;;;;;;4773778;55;21129;-25
2021/10/10 21:47:13;;;;;;;33.08;28.12;;;20.80;53.40;;;;;;4760154;55;21010;-26
2021/10/10 21:52:14;;;;;;;33.40;28.80;;;20.80;53.40;;;;;;4750600;55;21627;-25
2021/10/10 21:57:15;;;;;;;34.25;29.60;;;20.80;53.40;;;;;;4737082;59;21085;-26
2021/10/10 22:02:16;;;;;;;33.17;29.45;;;20.80;53.40;;;;;;4743803;55;21017;-23
2021/10/10 22:07:17;;;;;;;33.65;28.48;;;20.80;53.40;;;;;;4744277;55;21022;-26
2021/10/10 22:12:18;;;;;;;33.72;28.65;;;20.80;53.40;;;;;;4762651;55;21565;-23
2021/10/10 22:17:19;;;;;;;31.90;27.90;;;20.80;53.40;;;;;;4738901;55;21010;-24
2021/10/10 22:22:21;;;;;;;30.98;27.60;;;20.80;53.40;;;;;;4744185;55;21599;-22
2021/10/10 22:27:40;;;;;;;31.12;26.70;;;20.80;53.40;;;;;;4747149;55;20997;-25
2021/10/10 22:32:41;;;;;;;33.22;26.92;;;20.80;53.40;;;;;;4770678;55;21555;-24
2021/10/10 22:37:42;;;;;;;31.62;27.00;;;20.80;53.40;;;;;;4736359;56;20999;-24
2021/10/10 22:42:43;;;;;;;31.80;27.23;;;20.80;53.40;;;;;;4737701;55;21114;-25
2021/10/10 22:47:46;;;;;;;29.48;26.20;;;20.80;53.40;;;;;;4747252;55;21022;-21
2021/10/10 22:52:46;;;;;;;30.17;26.23;;;20.80;53.40;;;;;;4754066;55;22234;-23
2021/10/10 22:57:47;;;;;;;28.10;24.98;;;20.80;53.40;;;;;;4744691;55;21081;-21
2021/10/10 23:02:48;;;;;;;30.33;25.70;;;20.80;53.50;;;;;;4782713;55;21714;-24
2021/10/10 23:07:49;;;;;;;27.87;24.77;;;20.80;53.40;;;;;;4760650;55;21002;-24
2021/10/10 23:12:50;;;;;;;27.58;24.08;;;20.80;53.40;;;;;;4755722;55;21010;-23
2021/10/10 23:17:50;;;;;;;26.75;23.77;;;20.80;53.40;;;;;;4739422;55;21464;-21
2021/10/10 23:22:51;;;;;;;29.15;25.02;;;20.80;53.40;;;;;;4736892;59;21053;-24
2021/10/10 23:27:52;;;;;;;27.13;23.77;;;20.80;53.40;;;;;;4749021;55;21002;-22
2021/10/10 23:32:54;;;;;;;26.60;23.40;;;20.80;53.40;;;;;;4748011;55;20994;-22
2021/10/10 23:37:54;;;;;;;26.08;23.25;;;20.80;53.40;;;;;;4771680;55;21165;-25
2021/10/10 23:42:55;;;;;;;26.67;23.80;;;20.80;53.40;;;;;;4748233;55;21117;-25
2021/10/10 23:47:56;;;;;;;26.77;23.70;;;20.80;53.40;;;;;;4770797;55;21065;-24
2021/10/10 23:52:57;;;;;;;25.00;22.02;;;20.80;54.10;;;;;;4746460;55;21458;-21
2021/10/10 23:57:58;;;;;;;26.52;23.02;;;20.80;53.40;;;;;;4771575;55;21142;-20
